createdAt,value
2018-09-27T00:00:11.006Z,9.54
2018-09-27T00:01:10.929Z,9.42
2018-09-27T00:02:10.847Z,9.43
2018-09-27T00:03:10.777Z,9.47
2018-09-27T00:04:10.697Z,9.46
2018-09-27T00:05:10.624Z,9.50
2018-09-27T00:06:10.543Z,9.48
2018-09-27T00:07:10.465Z,9.46
2018-09-27T00:08:10.388Z,9.43
2018-09-27T00:09:10.319Z,9.48
2018-09-27T00:10:10.232Z,9.51
2018-09-27T00:11:10.156Z,9.46
2018-09-27T00:12:10.080Z,9.35
2018-09-27T00:13:09.999Z,9.35
2018-09-27T00:14:09.922Z,9.35
2018-09-27T00:15:09.847Z,9.35
2018-09-27T00:16:09.766Z,9.38
2018-09-27T00:17:09.695Z,9.46
2018-09-27T00:18:09.612Z,9.42
2018-09-27T00:19:09.535Z,9.47
2018-09-27T00:20:09.456Z,9.50
2018-09-27T00:21:09.380Z,9.46
2018-09-27T00:22:09.303Z,9.53
2018-09-27T00:23:09.231Z,9.58
2018-09-27T00:24:09.154Z,9.58
2018-09-27T00:25:09.115Z,9.54
2018-09-27T00:26:08.994Z,9.64
2018-09-27T00:27:08.913Z,9.57
2018-09-27T00:28:08.832Z,9.64
2018-09-27T00:29:08.762Z,9.56
2018-09-27T00:30:08.686Z,9.48
2018-09-27T00:31:08.603Z,9.60
2018-09-27T00:32:08.525Z,9.47
2018-09-27T00:33:08.444Z,9.47
2018-09-27T00:34:08.373Z,9.46
2018-09-27T00:35:08.292Z,9.43
2018-09-27T00:36:08.218Z,9.39
2018-09-27T00:37:08.137Z,9.40
2018-09-27T00:38:08.060Z,9.38
2018-09-27T00:39:07.984Z,9.39
2018-09-27T00:40:07.909Z,9.32
2018-09-27T00:41:07.830Z,9.29
2018-09-27T00:42:07.750Z,9.33
2018-09-27T00:43:07.675Z,9.29
2018-09-27T00:44:07.598Z,9.28
2018-09-27T00:45:07.517Z,9.31
2018-09-27T00:46:07.439Z,9.29
2018-09-27T00:47:07.363Z,9.15
2018-09-27T00:48:07.283Z,9.20
2018-09-27T00:49:07.208Z,9.24
2018-09-27T00:50:07.129Z,9.20
2018-09-27T00:51:07.051Z,9.14
2018-09-27T00:52:06.974Z,9.05
2018-09-27T00:53:06.900Z,9.08
2018-09-27T00:54:06.823Z,9.05
2018-09-27T00:55:06.738Z,9.10
2018-09-27T00:56:06.662Z,9.10
2018-09-27T00:57:06.584Z,9.15
2018-09-27T00:58:06.508Z,9.10
2018-09-27T00:59:06.431Z,9.15
2018-09-27T01:00:06.350Z,9.08
2018-09-27T01:01:06.273Z,9.04
2018-09-27T01:02:06.196Z,9.08
2018-09-27T01:03:06.122Z,9.13
2018-09-27T01:04:06.040Z,9.11
2018-09-27T01:05:05.962Z,9.05
2018-09-27T01:06:05.886Z,9.13
2018-09-27T01:07:05.807Z,9.15
2018-09-27T01:08:05.729Z,9.04
2018-09-27T01:09:05.650Z,9.14
2018-09-27T01:10:05.573Z,9.05
2018-09-27T01:11:05.501Z,9.08
2018-09-27T01:12:05.419Z,9.02
2018-09-27T01:13:05.341Z,9.05
2018-09-27T01:14:05.264Z,8.95
2018-09-27T01:15:05.184Z,9.05
2018-09-27T01:16:05.106Z,8.99
2018-09-27T01:17:05.030Z,8.98
2018-09-27T01:18:04.948Z,8.96
2018-09-27T01:19:04.873Z,8.94
2018-09-27T01:20:04.795Z,8.98
2018-09-27T01:21:04.716Z,8.96
2018-09-27T01:22:04.642Z,9.05
2018-09-27T01:23:04.564Z,8.96
2018-09-27T01:24:04.486Z,8.94
2018-09-27T01:25:04.406Z,8.94
2018-09-27T01:26:04.329Z,8.84
2018-09-27T01:27:04.251Z,8.87
2018-09-27T01:28:04.171Z,8.86
2018-09-27T01:29:04.097Z,8.89
2018-09-27T01:30:04.015Z,8.84
2018-09-27T01:31:03.939Z,8.94
2018-09-27T01:32:03.859Z,8.95
2018-09-27T01:33:03.781Z,8.92
2018-09-27T01:34:03.706Z,8.87
2018-09-27T01:35:03.626Z,8.87
2018-09-27T01:36:03.547Z,8.91
2018-09-27T01:37:03.476Z,8.91
2018-09-27T01:38:03.395Z,8.87
2018-09-27T01:39:03.315Z,8.84
2018-09-27T01:40:03.237Z,8.83
2018-09-27T01:41:03.159Z,8.87
2018-09-27T01:42:03.084Z,8.71
2018-09-27T01:43:03.009Z,8.71
2018-09-27T01:44:02.924Z,8.63
2018-09-27T01:45:02.847Z,8.76
2018-09-27T01:46:02.768Z,8.77
2018-09-27T01:47:02.694Z,8.73
2018-09-27T01:48:02.613Z,8.65
2018-09-27T01:49:02.537Z,8.80
2018-09-27T01:50:02.461Z,8.65
2018-09-27T01:51:02.384Z,8.66
2018-09-27T01:52:02.305Z,8.63
2018-09-27T01:53:02.224Z,8.73
2018-09-27T01:54:02.146Z,8.58
2018-09-27T01:55:02.071Z,8.63
2018-09-27T01:56:01.993Z,8.65
2018-09-27T01:57:01.914Z,8.65
2018-09-27T01:58:01.836Z,8.56
2018-09-27T01:59:01.756Z,8.59
2018-09-27T02:00:01.683Z,8.58
2018-09-27T02:01:01.601Z,8.68
2018-09-27T02:02:01.521Z,8.61
2018-09-27T02:03:01.444Z,8.56
2018-09-27T02:04:01.365Z,8.53
2018-09-27T02:05:01.290Z,8.61
2018-09-27T02:06:01.208Z,8.65
2018-09-27T02:07:01.133Z,8.58
2018-09-27T02:08:01.055Z,8.63
2018-09-27T02:09:00.974Z,8.68
2018-09-27T02:10:00.895Z,8.70
2018-09-27T02:11:00.819Z,8.56
2018-09-27T02:12:00.738Z,8.56
2018-09-27T02:13:00.659Z,8.58
2018-09-27T02:14:00.583Z,8.59
2018-09-27T02:15:00.505Z,8.53
2018-09-27T02:16:00.427Z,8.50
2018-09-27T02:17:00.348Z,8.50
2018-09-27T02:18:00.270Z,8.52
2018-09-27T02:19:00.195Z,8.44
2018-09-27T02:20:00.119Z,8.41
2018-09-27T02:21:00.035Z,8.40
2018-09-27T02:21:59.961Z,8.44
2018-09-27T02:22:59.878Z,8.41
2018-09-27T02:23:59.802Z,8.45
2018-09-27T02:24:59.721Z,8.41
2018-09-27T02:25:59.646Z,8.36
2018-09-27T02:26:59.568Z,8.38
2018-09-27T02:27:59.488Z,8.30
2018-09-27T02:28:59.419Z,8.30
2018-09-27T02:29:59.335Z,8.40
2018-09-27T02:30:59.254Z,8.29
2018-09-27T02:31:59.178Z,8.36
2018-09-27T02:32:59.099Z,8.40
2018-09-27T02:33:59.020Z,8.34
2018-09-27T02:34:58.952Z,8.37
2018-09-27T02:35:58.863Z,8.30
2018-09-27T02:36:58.785Z,8.33
2018-09-27T02:37:58.710Z,8.30
2018-09-27T02:38:58.630Z,8.26
2018-09-27T02:39:58.549Z,8.33
2018-09-27T02:40:58.470Z,8.26
2018-09-27T02:41:58.394Z,8.26
2018-09-27T02:42:58.316Z,8.26
2018-09-27T02:43:58.235Z,8.22
2018-09-27T02:44:58.160Z,8.20
2018-09-27T02:45:58.085Z,8.26
2018-09-27T02:46:58.000Z,8.28
2018-09-27T02:47:57.923Z,8.34
2018-09-27T02:48:57.845Z,8.26
2018-09-27T02:49:57.769Z,8.22
2018-09-27T02:50:57.689Z,8.29
2018-09-27T02:51:57.610Z,8.28
2018-09-27T02:52:57.548Z,8.22
2018-09-27T02:53:57.453Z,8.34
2018-09-27T02:54:57.405Z,8.30
2018-09-27T02:55:57.296Z,8.18
2018-09-27T02:56:57.219Z,8.30
2018-09-27T02:57:57.141Z,8.28
2018-09-27T02:58:57.062Z,8.25
2018-09-27T02:59:56.980Z,8.25
2018-09-27T03:00:56.908Z,8.25
2018-09-27T03:01:56.832Z,8.23
2018-09-27T03:02:56.748Z,8.11
2018-09-27T03:03:56.672Z,8.08
2018-09-27T03:04:56.591Z,8.18
2018-09-27T03:05:56.514Z,8.12
2018-09-27T03:06:56.435Z,8.22
2018-09-27T03:07:56.357Z,8.16
2018-09-27T03:08:56.284Z,8.15
2018-09-27T03:09:56.196Z,8.08
2018-09-27T03:10:56.121Z,8.12
2018-09-27T03:11:56.043Z,8.15
2018-09-27T03:12:55.963Z,8.19
2018-09-27T03:13:56.003Z,8.12
2018-09-27T03:14:55.812Z,8.11
2018-09-27T03:15:55.724Z,8.19
2018-09-27T03:16:55.651Z,8.11
2018-09-27T03:17:55.572Z,8.02
2018-09-27T03:18:55.496Z,8.04
2018-09-27T03:19:55.415Z,8.02
2018-09-27T03:20:55.364Z,8.04
2018-09-27T03:21:55.257Z,7.98
2018-09-27T03:22:55.184Z,8.11
2018-09-27T03:23:55.104Z,8.05
2018-09-27T03:24:55.029Z,8.05
2018-09-27T03:25:54.947Z,8.12
2018-09-27T03:26:54.867Z,8.01
2018-09-27T03:27:54.782Z,8.04
2018-09-27T03:28:54.711Z,8.05
2018-09-27T03:29:54.632Z,8.01
2018-09-27T03:30:54.553Z,7.98
2018-09-27T03:31:54.474Z,7.98
2018-09-27T03:32:54.394Z,8.00
2018-09-27T03:33:54.318Z,8.02
2018-09-27T03:34:54.242Z,7.97
2018-09-27T03:35:54.158Z,8.02
2018-09-27T03:36:54.082Z,7.95
2018-09-27T03:37:54.002Z,8.02
2018-09-27T03:38:53.925Z,7.93
2018-09-27T03:39:53.939Z,8.04
2018-09-27T03:40:53.766Z,8.04
2018-09-27T03:41:53.686Z,8.05
2018-09-27T03:42:53.609Z,8.05
2018-09-27T03:43:53.539Z,8.04
2018-09-27T03:44:53.466Z,8.07
2018-09-27T03:45:53.377Z,8.12
2018-09-27T03:46:53.299Z,8.08
2018-09-27T03:47:53.216Z,8.04
2018-09-27T03:48:53.145Z,7.98
2018-09-27T03:49:53.060Z,8.05
2018-09-27T03:50:52.981Z,8.18
2018-09-27T03:51:52.911Z,8.16
2018-09-27T03:52:52.825Z,8.05
2018-09-27T03:53:52.753Z,8.02
2018-09-27T03:54:52.668Z,8.00
2018-09-27T03:55:52.589Z,8.02
2018-09-27T03:56:52.511Z,8.01
2018-09-27T03:57:52.434Z,8.00
2018-09-27T03:58:52.357Z,8.04
2018-09-27T03:59:52.282Z,8.01
2018-09-27T04:00:52.194Z,8.04
2018-09-27T04:01:52.123Z,8.00
2018-09-27T04:02:52.038Z,8.01
2018-09-27T04:03:51.957Z,8.00
2018-09-27T04:04:51.879Z,8.02
2018-09-27T04:05:51.804Z,7.90
2018-09-27T04:06:51.722Z,7.97
2018-09-27T04:07:51.643Z,7.98
2018-09-27T04:08:51.574Z,7.93
2018-09-27T04:09:51.488Z,7.86
2018-09-27T04:10:51.408Z,7.90
2018-09-27T04:11:51.332Z,7.89
2018-09-27T04:12:51.251Z,7.90
2018-09-27T04:13:51.175Z,7.89
2018-09-27T04:14:51.095Z,7.93
2018-09-27T04:15:51.058Z,7.93
2018-09-27T04:16:50.936Z,7.80
2018-09-27T04:17:50.860Z,7.82
2018-09-27T04:18:50.780Z,7.77
2018-09-27T04:19:50.708Z,7.77
2018-09-27T04:20:50.626Z,7.83
2018-09-27T04:21:50.556Z,7.85
2018-09-27T04:22:50.464Z,7.87
2018-09-27T04:23:50.423Z,7.77
2018-09-27T04:24:50.304Z,7.79
2018-09-27T04:25:50.229Z,7.74
2018-09-27T04:26:50.149Z,7.74
2018-09-27T04:27:50.125Z,7.87
2018-09-27T04:28:49.993Z,7.86
2018-09-27T04:29:49.919Z,7.86
2018-09-27T04:30:49.830Z,7.86
2018-09-27T04:31:49.755Z,7.82
2018-09-27T04:32:49.682Z,7.79
2018-09-27T04:33:49.623Z,7.83
2018-09-27T04:34:49.521Z,7.82
2018-09-27T04:35:49.450Z,7.83
2018-09-27T04:36:49.361Z,7.87
2018-09-27T04:37:49.283Z,7.82
2018-09-27T04:38:49.213Z,7.90
2018-09-27T04:39:49.168Z,7.74
2018-09-27T04:40:49.047Z,7.82
2018-09-27T04:41:48.979Z,7.85
2018-09-27T04:42:48.885Z,7.80
2018-09-27T04:43:48.809Z,7.80
2018-09-27T04:44:48.736Z,7.86
2018-09-27T04:45:48.670Z,7.90
2018-09-27T04:46:48.640Z,7.87
2018-09-27T04:47:48.497Z,7.82
2018-09-27T04:48:48.413Z,7.77
2018-09-27T04:49:48.343Z,7.82
2018-09-27T04:50:48.258Z,7.79
2018-09-27T04:51:48.223Z,7.86
2018-09-27T04:52:48.099Z,7.85
2018-09-27T04:53:48.027Z,7.89
2018-09-27T04:54:47.941Z,7.90
2018-09-27T04:55:47.864Z,7.90
2018-09-27T04:56:47.785Z,7.87
2018-09-27T04:57:47.709Z,7.85
2018-09-27T04:58:47.627Z,7.93
2018-09-27T04:59:47.546Z,7.89
2018-09-27T05:00:47.472Z,7.85
2018-09-27T05:01:47.391Z,7.92
2018-09-27T05:02:47.314Z,7.90
2018-09-27T05:03:47.254Z,7.87
2018-09-27T05:04:47.153Z,7.93
2018-09-27T05:05:47.090Z,7.95
2018-09-27T05:06:46.998Z,7.95
2018-09-27T05:07:46.916Z,7.90
2018-09-27T05:08:46.839Z,7.93
2018-09-27T05:09:46.760Z,7.90
2018-09-27T05:10:46.683Z,7.92
2018-09-27T05:11:46.602Z,7.89
2018-09-27T05:12:46.523Z,7.92
2018-09-27T05:13:46.446Z,7.89
2018-09-27T05:14:46.367Z,7.92
2018-09-27T05:15:46.291Z,7.95
2018-09-27T05:16:46.209Z,7.86
2018-09-27T05:17:46.136Z,7.89
2018-09-27T05:18:46.052Z,7.85
2018-09-27T05:19:45.972Z,7.89
2018-09-27T05:20:45.895Z,7.89
2018-09-27T05:21:45.943Z,7.85
2018-09-27T05:22:45.741Z,7.86
2018-09-27T05:23:45.657Z,7.82
2018-09-27T05:24:45.578Z,7.82
2018-09-27T05:25:45.502Z,7.86
2018-09-27T05:26:45.421Z,7.85
2018-09-27T05:27:45.405Z,7.82
2018-09-27T05:28:45.264Z,7.83
2018-09-27T05:29:45.192Z,7.86
2018-09-27T05:30:45.107Z,7.77
2018-09-27T05:31:45.037Z,7.90
2018-09-27T05:32:44.948Z,7.80
2018-09-27T05:33:44.871Z,7.82
2018-09-27T05:34:44.793Z,7.86
2018-09-27T05:35:44.712Z,7.80
2018-09-27T05:36:44.633Z,7.83
2018-09-27T05:37:44.554Z,7.82
2018-09-27T05:38:44.476Z,7.86
2018-09-27T05:39:44.398Z,7.85
2018-09-27T05:40:44.322Z,7.80
2018-09-27T05:41:44.240Z,7.87
2018-09-27T05:42:44.164Z,7.85
2018-09-27T05:43:44.084Z,7.89
2018-09-27T05:44:44.004Z,7.87
2018-09-27T05:45:43.931Z,7.83
2018-09-27T05:46:43.848Z,7.90
2018-09-27T05:47:43.773Z,7.89
2018-09-27T05:48:43.694Z,7.86
2018-09-27T05:49:43.612Z,7.86
2018-09-27T05:50:43.533Z,7.83
2018-09-27T05:51:43.548Z,7.80
2018-09-27T05:52:43.373Z,7.82
2018-09-27T05:53:43.296Z,7.80
2018-09-27T05:54:43.217Z,7.82
2018-09-27T05:55:43.164Z,7.80
2018-09-27T05:56:43.063Z,7.89
2018-09-27T05:57:43.008Z,7.90
2018-09-27T05:58:42.905Z,7.83
2018-09-27T05:59:42.820Z,7.87
2018-09-27T06:00:42.748Z,7.92
2018-09-27T06:01:42.667Z,7.93
2018-09-27T06:02:42.593Z,7.90
2018-09-27T06:03:42.529Z,7.90
2018-09-27T06:04:42.431Z,7.90
2018-09-27T06:05:42.355Z,8.04
2018-09-27T06:06:42.277Z,8.04
2018-09-27T06:07:42.194Z,8.00
2018-09-27T06:08:42.116Z,8.01
2018-09-27T06:09:42.102Z,8.00
2018-09-27T06:10:41.958Z,8.15
2018-09-27T06:11:41.881Z,8.12
2018-09-27T06:12:41.800Z,8.15
2018-09-27T06:13:41.724Z,8.08
2018-09-27T06:14:41.644Z,8.20
2018-09-27T06:15:41.633Z,8.19
2018-09-27T06:16:41.490Z,8.26
2018-09-27T06:17:41.419Z,8.25
2018-09-27T06:18:41.330Z,8.23
2018-09-27T06:19:41.276Z,8.23
2018-09-27T06:20:41.173Z,8.26
2018-09-27T06:21:41.172Z,8.30
2018-09-27T06:22:41.015Z,8.34
2018-09-27T06:23:40.938Z,8.33
2018-09-27T06:24:40.860Z,8.25
2018-09-27T06:25:40.780Z,8.26
2018-09-27T06:26:40.710Z,8.23
2018-09-27T06:27:40.675Z,8.34
2018-09-27T06:28:40.544Z,8.30
2018-09-27T06:29:40.466Z,8.33
2018-09-27T06:30:40.389Z,8.30
2018-09-27T06:31:40.311Z,8.41
2018-09-27T06:32:40.231Z,8.45
2018-09-27T06:33:40.242Z,8.48
2018-09-27T06:34:40.074Z,8.52
2018-09-27T06:35:39.997Z,8.55
2018-09-27T06:36:39.917Z,8.58
2018-09-27T06:37:39.837Z,8.56
2018-09-27T06:38:39.821Z,8.56
2018-09-27T06:39:39.681Z,8.50
2018-09-27T06:40:39.603Z,8.63
2018-09-27T06:41:39.522Z,8.61
2018-09-27T06:42:39.479Z,8.71
2018-09-27T06:43:39.364Z,8.77
2018-09-27T06:44:39.306Z,8.86
2018-09-27T06:45:39.211Z,8.89
2018-09-27T06:46:39.137Z,8.94
2018-09-27T06:47:39.056Z,8.92
2018-09-27T06:48:39.000Z,8.94
2018-09-27T06:49:38.904Z,8.99
2018-09-27T06:50:38.877Z,8.95
2018-09-27T06:51:38.741Z,9.11
2018-09-27T06:52:38.666Z,9.21
2018-09-27T06:53:38.581Z,9.24
2018-09-27T06:54:38.508Z,9.26
2018-09-27T06:55:38.608Z,9.32
2018-09-27T06:56:38.411Z,9.47
2018-09-27T06:57:38.280Z,9.48
2018-09-27T06:58:38.198Z,9.46
2018-09-27T06:59:38.113Z,9.48
2018-09-27T07:00:38.043Z,9.56
2018-09-27T07:01:37.964Z,9.51
2018-09-27T07:02:37.922Z,9.53
2018-09-27T07:03:37.804Z,9.71
2018-09-27T07:04:37.726Z,9.66
2018-09-27T07:05:37.649Z,9.75
2018-09-27T07:06:37.571Z,9.86
2018-09-27T07:07:37.494Z,9.84
2018-09-27T07:08:37.494Z,9.94
2018-09-27T07:09:37.339Z,9.91
2018-09-27T07:10:37.260Z,9.97
2018-09-27T07:11:37.185Z,10.11
2018-09-27T07:12:37.121Z,10.02
2018-09-27T07:13:37.030Z,10.08
2018-09-27T07:14:36.963Z,10.08
2018-09-27T07:15:36.959Z,10.08
2018-09-27T07:16:36.793Z,10.17
2018-09-27T07:17:36.718Z,10.22
2018-09-27T07:18:36.687Z,10.15
2018-09-27T07:19:36.562Z,10.30
2018-09-27T07:20:36.531Z,10.25
2018-09-27T07:21:36.407Z,10.26
2018-09-27T07:22:36.330Z,10.29
2018-09-27T07:23:36.255Z,10.36
2018-09-27T07:24:36.175Z,10.42
2018-09-27T07:25:36.099Z,10.40
2018-09-27T07:26:36.103Z,10.44
2018-09-27T07:27:35.950Z,10.48
2018-09-27T07:28:35.865Z,10.51
2018-09-27T07:29:35.797Z,10.66
2018-09-27T07:30:35.714Z,10.67
2018-09-27T07:31:35.636Z,10.74
2018-09-27T07:32:35.628Z,10.78
2018-09-27T07:33:35.482Z,10.78
2018-09-27T07:34:35.407Z,10.82
2018-09-27T07:35:35.326Z,10.84
2018-09-27T07:36:35.283Z,10.99
2018-09-27T07:37:35.179Z,10.97
2018-09-27T07:38:35.210Z,10.99
2018-09-27T07:39:35.024Z,11.09
2018-09-27T07:40:34.950Z,11.10
2018-09-27T07:41:34.872Z,11.11
2018-09-27T07:42:34.793Z,11.24
2018-09-27T07:43:34.712Z,11.28
2018-09-27T07:44:34.692Z,11.39
2018-09-27T07:45:34.560Z,11.37
2018-09-27T07:46:34.481Z,11.39
2018-09-27T07:47:34.405Z,11.46
2018-09-27T07:48:34.336Z,11.49
2018-09-27T07:49:34.253Z,11.52
2018-09-27T07:50:34.185Z,11.57
2018-09-27T07:51:34.099Z,11.57
2018-09-27T07:52:34.024Z,11.67
2018-09-27T07:53:33.943Z,11.76
2018-09-27T07:54:34.010Z,11.70
2018-09-27T07:55:33.793Z,11.78
2018-09-27T07:56:33.775Z,11.79
2018-09-27T07:57:33.640Z,11.80
2018-09-27T07:58:33.565Z,11.80
2018-09-27T07:59:33.482Z,11.83
2018-09-27T08:00:33.413Z,12.04
2018-09-27T08:01:33.332Z,12.09
2018-09-27T08:02:33.340Z,12.13
2018-09-27T08:03:33.179Z,12.23
2018-09-27T08:04:33.107Z,12.21
2018-09-27T08:05:33.029Z,12.34
2018-09-27T08:06:32.953Z,12.39
2018-09-27T08:07:32.876Z,12.47
2018-09-27T08:08:32.836Z,12.45
2018-09-27T08:09:32.727Z,12.46
2018-09-27T08:10:32.650Z,12.41
2018-09-27T08:11:32.675Z,12.54
2018-09-27T08:12:32.496Z,12.50
2018-09-27T08:13:32.423Z,12.59
2018-09-27T08:14:32.402Z,12.64
2018-09-27T08:15:32.269Z,12.59
2018-09-27T08:16:32.193Z,12.74
2018-09-27T08:17:32.118Z,12.78
2018-09-27T08:18:32.041Z,12.78
2018-09-27T08:19:31.967Z,12.82
2018-09-27T08:20:31.977Z,12.83
2018-09-27T08:21:31.820Z,12.96
2018-09-27T08:22:31.742Z,12.95
2018-09-27T08:23:31.662Z,13.10
2018-09-27T08:24:31.586Z,13.32
2018-09-27T08:25:31.507Z,13.42
2018-09-27T08:26:31.440Z,13.57
2018-09-27T08:27:31.360Z,13.63
2018-09-27T08:28:31.286Z,13.70
2018-09-27T08:29:31.215Z,13.75
2018-09-27T08:30:31.186Z,13.73
2018-09-27T08:31:31.064Z,13.75
2018-09-27T08:32:31.043Z,13.79
2018-09-27T08:33:30.915Z,13.84
2018-09-27T08:34:30.834Z,14.00
2018-09-27T08:35:30.762Z,13.97
2018-09-27T08:36:30.686Z,14.14
2018-09-27T08:37:30.609Z,14.15
2018-09-27T08:38:30.538Z,14.25
2018-09-27T08:39:30.462Z,14.27
2018-09-27T08:40:30.379Z,14.35
2018-09-27T08:41:30.404Z,14.40
2018-09-27T08:42:30.233Z,14.52
2018-09-27T08:43:30.159Z,14.46
2018-09-27T08:44:30.157Z,14.50
2018-09-27T08:45:30.131Z,14.57
2018-09-27T08:46:29.934Z,14.54
2018-09-27T08:47:29.860Z,14.80
2018-09-27T08:48:29.785Z,14.88
2018-09-27T08:49:29.715Z,15.14
2018-09-27T08:50:29.632Z,15.68
2018-09-27T08:51:29.624Z,16.42
2018-09-27T08:52:29.488Z,17.37
2018-09-27T08:53:29.426Z,18.32
2018-09-27T08:54:29.338Z,19.02
2018-09-27T08:55:29.341Z,19.39
2018-09-27T08:56:29.227Z,19.65
2018-09-27T08:57:29.148Z,19.74
2018-09-27T08:58:29.043Z,19.46
2018-09-27T08:59:28.968Z,19.63
2018-09-27T09:00:28.893Z,20.21
2018-09-27T09:01:28.875Z,20.02
2018-09-27T09:02:28.747Z,20.20
2018-09-27T09:03:28.743Z,19.96
2018-09-27T09:04:28.601Z,19.68
2018-09-27T09:05:28.531Z,20.54
2018-09-27T09:06:28.454Z,20.94
2018-09-27T09:07:28.433Z,21.07
2018-09-27T09:08:28.307Z,21.13
2018-09-27T09:09:28.293Z,21.24
2018-09-27T09:10:28.165Z,21.22
2018-09-27T09:11:28.090Z,20.94
2018-09-27T09:12:28.057Z,20.62
2018-09-27T09:13:27.975Z,20.23
2018-09-27T09:14:27.874Z,20.20
2018-09-27T09:15:27.819Z,18.87
2018-09-27T09:16:27.731Z,18.92
2018-09-27T09:17:27.656Z,19.46
2018-09-27T09:18:27.584Z,20.01
2018-09-27T09:19:27.544Z,19.92
2018-09-27T09:20:27.440Z,19.51
2018-09-27T09:21:27.381Z,18.70
2018-09-27T09:22:27.300Z,18.87
2018-09-27T09:23:27.228Z,19.06
2018-09-27T09:24:27.196Z,19.83
2018-09-27T09:25:27.095Z,20.52
2018-09-27T09:26:27.021Z,21.46
2018-09-27T09:27:26.973Z,22.17
2018-09-27T09:28:26.922Z,22.45
2018-09-27T09:29:26.813Z,21.98
2018-09-27T09:30:26.724Z,22.55
2018-09-27T09:31:26.656Z,23.07
2018-09-27T09:32:26.583Z,23.28
2018-09-27T09:33:26.561Z,23.09
2018-09-27T09:34:26.440Z,22.77
2018-09-27T09:35:26.408Z,22.82
2018-09-27T09:36:26.295Z,22.82
2018-09-27T09:37:26.226Z,23.15
2018-09-27T09:38:26.156Z,22.92
2018-09-27T09:39:26.084Z,23.16
2018-09-27T09:40:26.013Z,23.68
2018-09-27T09:41:25.941Z,23.94
2018-09-27T09:42:25.872Z,24.12
2018-09-27T09:43:25.804Z,24.09
2018-09-27T09:44:25.728Z,24.28
2018-09-27T09:45:25.663Z,24.61
2018-09-27T09:46:25.596Z,24.42
2018-09-27T09:47:25.520Z,24.43
2018-09-27T09:48:25.452Z,24.37
2018-09-27T09:49:25.380Z,24.49
2018-09-27T09:50:25.308Z,24.43
2018-09-27T09:51:25.241Z,24.67
2018-09-27T09:52:25.170Z,24.67
2018-09-27T09:53:25.099Z,23.94
2018-09-27T09:54:25.030Z,23.36
2018-09-27T09:55:24.962Z,22.91
2018-09-27T09:56:24.890Z,22.60
2018-09-27T09:57:24.829Z,22.31
2018-09-27T09:58:24.751Z,21.80
2018-09-27T09:59:24.682Z,22.03
2018-09-27T10:00:24.609Z,22.06
2018-09-27T10:01:24.561Z,22.14
2018-09-27T10:02:24.511Z,22.07
2018-09-27T10:03:24.404Z,22.15
2018-09-27T10:04:24.334Z,22.00
2018-09-27T10:05:24.262Z,21.98
2018-09-27T10:06:24.192Z,21.91
2018-09-27T10:07:24.126Z,21.94
2018-09-27T10:08:24.055Z,21.67
2018-09-27T10:09:23.984Z,21.72
2018-09-27T10:10:23.909Z,21.69
2018-09-27T10:11:23.862Z,21.77
2018-09-27T10:12:23.775Z,21.65
2018-09-27T10:13:23.705Z,21.69
2018-09-27T10:14:23.636Z,21.64
2018-09-27T10:15:23.566Z,21.58
2018-09-27T10:16:23.497Z,21.54
2018-09-27T10:17:23.423Z,21.56
2018-09-27T10:18:23.357Z,21.58
2018-09-27T10:19:23.288Z,21.56
2018-09-27T10:20:23.216Z,21.56
2018-09-27T10:21:23.153Z,21.58
2018-09-27T10:22:23.079Z,21.52
2018-09-27T10:23:23.015Z,21.32
2018-09-27T10:24:22.938Z,21.25
2018-09-27T10:25:22.869Z,21.24
2018-09-27T10:26:22.798Z,21.37
2018-09-27T10:27:22.752Z,21.21
2018-09-27T10:28:22.742Z,21.17
2018-09-27T10:29:22.591Z,21.28
2018-09-27T10:30:22.523Z,21.24
2018-09-27T10:31:22.447Z,21.22
2018-09-27T10:32:22.379Z,21.16
2018-09-27T10:33:22.313Z,21.13
2018-09-27T10:34:22.298Z,20.85
2018-09-27T10:35:22.169Z,21.01
2018-09-27T10:36:22.099Z,20.98
2018-09-27T10:37:22.031Z,20.95
2018-09-27T10:38:21.959Z,20.84
2018-09-27T10:39:21.890Z,20.95
2018-09-27T10:40:21.817Z,20.89
2018-09-27T10:41:21.750Z,20.94
2018-09-27T10:42:21.677Z,20.94
2018-09-27T10:43:21.606Z,21.01
2018-09-27T10:44:21.536Z,21.06
2018-09-27T10:45:21.476Z,21.03
2018-09-27T10:46:21.399Z,21.06
2018-09-27T10:47:21.326Z,21.04
2018-09-27T10:48:21.257Z,21.17
2018-09-27T10:49:21.190Z,21.21
2018-09-27T10:50:21.115Z,21.14
2018-09-27T10:51:21.081Z,21.17
2018-09-27T10:52:20.977Z,21.16
2018-09-27T10:53:20.910Z,21.25
2018-09-27T10:54:20.836Z,21.25
2018-09-27T10:55:20.764Z,21.21
2018-09-27T10:56:20.693Z,21.21
2018-09-27T10:57:20.706Z,21.29
2018-09-27T10:58:20.553Z,21.29
2018-09-27T10:59:20.481Z,21.38
2018-09-27T11:00:20.415Z,21.38
2018-09-27T11:01:20.346Z,21.46
2018-09-27T11:02:20.269Z,21.43
2018-09-27T11:03:20.202Z,21.53
2018-09-27T11:04:20.132Z,21.59
2018-09-27T11:05:20.064Z,21.56
2018-09-27T11:06:19.992Z,21.62
2018-09-27T11:07:19.921Z,21.53
2018-09-27T11:08:19.851Z,21.69
2018-09-27T11:09:19.782Z,21.82
2018-09-27T11:10:19.709Z,21.82
2018-09-27T11:11:19.647Z,21.83
2018-09-27T11:12:19.570Z,21.88
2018-09-27T11:13:19.504Z,22.00
2018-09-27T11:14:19.448Z,22.18
2018-09-27T11:15:19.360Z,22.14
2018-09-27T11:16:19.290Z,22.24
2018-09-27T11:17:19.223Z,22.39
2018-09-27T11:18:19.151Z,22.33
2018-09-27T11:19:19.080Z,22.24
2018-09-27T11:20:19.009Z,22.02
2018-09-27T11:21:18.943Z,22.09
2018-09-27T11:22:18.873Z,22.17
2018-09-27T11:23:18.808Z,22.12
2018-09-27T11:24:18.733Z,22.27
2018-09-27T11:25:18.661Z,22.27
2018-09-27T11:26:18.610Z,22.25
2018-09-27T11:27:18.524Z,22.31
2018-09-27T11:28:18.452Z,22.39
2018-09-27T11:29:18.381Z,22.28
2018-09-27T11:30:18.314Z,22.39
2018-09-27T11:31:18.244Z,22.45
2018-09-27T11:32:18.178Z,22.73
2018-09-27T11:33:18.108Z,22.77
2018-09-27T11:34:18.036Z,22.97
2018-09-27T11:35:17.966Z,23.20
2018-09-27T11:36:17.935Z,23.46
2018-09-27T11:37:17.828Z,23.72
2018-09-27T11:38:17.759Z,23.88
2018-09-27T11:39:17.691Z,23.76
2018-09-27T11:40:17.619Z,23.70
2018-09-27T11:41:17.558Z,23.51
2018-09-27T11:42:17.521Z,23.50
2018-09-27T11:43:17.417Z,23.39
2018-09-27T11:44:17.343Z,23.39
2018-09-27T11:45:17.276Z,23.39
2018-09-27T11:46:17.207Z,23.27
2018-09-27T11:47:17.141Z,23.33
2018-09-27T11:48:17.073Z,23.31
2018-09-27T11:49:17.170Z,23.33
2018-09-27T11:50:17.008Z,23.36
2018-09-27T11:51:16.864Z,23.38
2018-09-27T11:52:16.796Z,23.36
2018-09-27T11:53:16.727Z,23.54
2018-09-27T11:54:16.662Z,23.50
2018-09-27T11:55:16.591Z,23.43
2018-09-27T11:56:16.527Z,23.43
2018-09-27T11:57:16.456Z,23.42
2018-09-27T11:58:16.391Z,23.50
2018-09-27T11:59:16.317Z,23.46
2018-09-27T12:00:16.246Z,23.48
2018-09-27T12:01:16.183Z,23.54
2018-09-27T12:02:16.111Z,23.78
2018-09-27T12:03:16.045Z,23.95
2018-09-27T12:04:15.974Z,23.93
2018-09-27T12:05:15.908Z,24.12
2018-09-27T12:06:15.837Z,24.09
2018-09-27T12:07:15.770Z,24.20
2018-09-27T12:08:15.698Z,24.42
2018-09-27T12:09:15.632Z,24.45
2018-09-27T12:10:15.564Z,24.46
2018-09-27T12:11:15.493Z,24.40
2018-09-27T12:12:15.431Z,24.32
2018-09-27T12:13:15.363Z,24.25
2018-09-27T12:14:15.291Z,24.28
2018-09-27T12:15:15.228Z,24.25
2018-09-27T12:16:15.156Z,24.52
2018-09-27T12:17:15.087Z,24.47
2018-09-27T12:18:15.018Z,24.32
2018-09-27T12:19:14.960Z,24.20
2018-09-27T12:20:14.885Z,24.00
2018-09-27T12:21:14.816Z,23.95
2018-09-27T12:22:14.748Z,23.97
2018-09-27T12:23:14.682Z,23.94
2018-09-27T12:24:14.611Z,23.91
2018-09-27T12:25:14.548Z,23.78
2018-09-27T12:26:14.478Z,23.90
2018-09-27T12:27:14.411Z,23.75
2018-09-27T12:28:14.341Z,23.78
2018-09-27T12:29:14.274Z,23.75
2018-09-27T12:30:14.206Z,23.76
2018-09-27T12:31:14.137Z,23.73
2018-09-27T12:32:14.084Z,23.75
2018-09-27T12:33:13.998Z,23.78
2018-09-27T12:34:13.940Z,23.76
2018-09-27T12:35:13.867Z,23.76
2018-09-27T12:36:13.797Z,23.76
2018-09-27T12:37:13.728Z,23.65
2018-09-27T12:38:13.694Z,23.70
2018-09-27T12:39:13.591Z,23.79
2018-09-27T12:40:13.527Z,23.79
2018-09-27T12:41:13.455Z,23.87
2018-09-27T12:42:13.537Z,23.83
2018-09-27T12:43:13.320Z,23.93
2018-09-27T12:44:13.252Z,23.88
2018-09-27T12:45:13.329Z,23.85
2018-09-27T12:46:13.130Z,23.90
2018-09-27T12:47:13.047Z,23.85
2018-09-27T12:48:12.980Z,23.91
2018-09-27T12:49:12.911Z,23.97
2018-09-27T12:50:12.842Z,23.85
2018-09-27T12:51:12.891Z,23.93
2018-09-27T12:52:12.994Z,23.95
2018-09-27T12:53:12.653Z,23.93
2018-09-27T12:54:12.576Z,23.98
2018-09-27T12:55:12.498Z,24.08
2018-09-27T12:56:12.433Z,23.94
2018-09-27T12:57:12.422Z,23.94
2018-09-27T12:58:12.295Z,23.93
2018-09-27T12:59:12.226Z,23.97
2018-09-27T13:00:12.160Z,23.97
2018-09-27T13:01:12.145Z,23.94
2018-09-27T13:02:12.146Z,23.80
2018-09-27T13:03:11.954Z,23.80
2018-09-27T13:04:11.884Z,23.93
2018-09-27T13:05:11.816Z,23.93